createdAt,value
2023-01-17T00:00:36.009Z,0.30
2023-01-17T00:01:36.002Z,0.20
2023-01-17T00:02:36.068Z,0.30
2023-01-17T00:03:35.992Z,0.40
2023-01-17T00:04:35.961Z,0.30
2023-01-17T00:05:35.959Z,0.40
2023-01-17T00:06:35.936Z,0.20
2023-01-17T00:07:35.925Z,0.30
2023-01-17T00:08:35.920Z,0.40
2023-01-17T00:09:35.922Z,0.50
2023-01-17T00:10:35.887Z,0.20
2023-01-17T00:11:35.879Z,0.20
2023-01-17T00:12:35.891Z,0.20
2023-01-17T00:13:35.843Z,0.30
2023-01-17T00:14:35.839Z,0.30
2023-01-17T00:15:35.818Z,0.30
2023-01-17T00:16:35.821Z,0.90
2023-01-17T00:17:35.790Z,0.30
2023-01-17T00:18:35.771Z,0.30
2023-01-17T00:19:35.788Z,0.30
2023-01-17T00:20:35.768Z,0.30
2023-01-17T00:21:35.736Z,0.40
2023-01-17T00:22:35.774Z,0.30
2023-01-17T00:23:35.708Z,0.20
2023-01-17T00:24:35.721Z,0.60
2023-01-17T00:25:35.720Z,0.20
2023-01-17T00:26:35.676Z,0.30
2023-01-17T00:27:35.664Z,0.50
2023-01-17T00:28:35.667Z,0.30
2023-01-17T00:29:35.637Z,0.20
2023-01-17T00:30:35.621Z,0.20
2023-01-17T00:31:35.651Z,0.30
2023-01-17T00:32:35.599Z,0.30
2023-01-17T00:33:35.596Z,0.30
2023-01-17T00:34:35.583Z,0.50
2023-01-17T00:35:35.561Z,0.20
2023-01-17T00:36:35.599Z,0.30
2023-01-17T00:37:35.532Z,0.40
2023-01-17T00:38:35.574Z,0.20
2023-01-17T00:39:35.516Z,0.30
2023-01-17T00:40:35.517Z,0.20
2023-01-17T00:41:35.493Z,0.30
2023-01-17T00:42:35.464Z,0.30
2023-01-17T00:43:35.456Z,0.20
2023-01-17T00:44:35.437Z,0.20
2023-01-17T00:45:35.426Z,0.50
2023-01-17T00:46:35.487Z,0.20
2023-01-17T00:47:35.407Z,0.50
2023-01-17T00:48:35.410Z,0.20
2023-01-17T00:49:35.374Z,0.30
2023-01-17T00:50:35.371Z,0.30
2023-01-17T00:51:35.368Z,0.30
2023-01-17T00:52:35.342Z,0.20
2023-01-17T00:53:35.325Z,0.20
2023-01-17T00:54:36.349Z,0.40
2023-01-17T00:55:35.304Z,0.30
2023-01-17T00:56:35.296Z,0.20
2023-01-17T00:57:35.304Z,0.20
2023-01-17T00:58:35.258Z,0.10
2023-01-17T00:59:35.267Z,0.30
2023-01-17T01:00:35.251Z,0.20
2023-01-17T01:01:35.502Z,0.30
2023-01-17T01:02:35.331Z,0.20
2023-01-17T01:03:35.195Z,0.20
2023-01-17T01:04:35.185Z,0.30
2023-01-17T01:05:35.202Z,0.20
2023-01-17T01:06:35.164Z,0.20
2023-01-17T01:07:35.149Z,0.10
2023-01-17T01:08:35.127Z,0.20
2023-01-17T01:09:35.127Z,0.10
2023-01-17T01:10:35.119Z,0.20
2023-01-17T01:11:35.093Z,0.20
2023-01-17T01:12:35.130Z,0.20
2023-01-17T01:13:35.084Z,0.20
2023-01-17T01:14:35.049Z,0.20
2023-01-17T01:15:35.061Z,0.30
2023-01-17T01:16:35.083Z,0.20
2023-01-17T01:17:35.048Z,0.20
2023-01-17T01:18:35.006Z,0.20
2023-01-17T01:19:34.996Z,0.30
2023-01-17T01:20:35.028Z,0.20
2023-01-17T01:21:34.973Z,0.30
2023-01-17T01:22:34.974Z,0.20
2023-01-17T01:23:34.966Z,0.20
2023-01-17T01:24:34.920Z,0.20
2023-01-17T01:25:34.914Z,0.10
2023-01-17T01:26:34.894Z,0.30
2023-01-17T01:27:34.901Z,0.40
2023-01-17T01:28:34.926Z,0.10
2023-01-17T01:29:34.866Z,0.20
2023-01-17T01:30:34.855Z,0.20
2023-01-17T01:31:34.869Z,0.30
2023-01-17T01:32:34.856Z,0.50
2023-01-17T01:33:34.864Z,0.30
2023-01-17T01:34:34.792Z,0.30
2023-01-17T01:35:34.790Z,0.20
2023-01-17T01:36:34.784Z,0.10
2023-01-17T01:37:34.775Z,0.20
2023-01-17T01:38:34.744Z,0.40
2023-01-17T01:39:34.740Z,0.20
2023-01-17T01:40:34.724Z,0.10
2023-01-17T01:41:34.704Z,0.20
2023-01-17T01:42:34.691Z,0.10
2023-01-17T01:43:34.732Z,0.20
2023-01-17T01:44:34.665Z,0.20
2023-01-17T01:45:34.670Z,0.10
2023-01-17T01:46:34.727Z,0.20
2023-01-17T01:47:34.641Z,0.20
2023-01-17T01:48:34.627Z,0.30
2023-01-17T01:49:34.602Z,0.30
2023-01-17T01:50:34.596Z,0.40
2023-01-17T01:51:34.595Z,0.20
2023-01-17T01:52:34.577Z,0.20
2023-01-17T01:53:34.566Z,0.40
2023-01-17T01:54:34.536Z,0.20
2023-01-17T01:55:34.533Z,0.30
2023-01-17T01:56:34.522Z,0.20
2023-01-17T01:57:34.512Z,0.20
2023-01-17T01:58:34.503Z,0.30
2023-01-17T01:59:34.479Z,0.40
2023-01-17T02:00:34.718Z,0.20
2023-01-17T02:01:34.608Z,0.50
2023-01-17T02:02:34.436Z,0.20
2023-01-17T02:03:34.507Z,0.40
2023-01-17T02:04:34.415Z,0.20
2023-01-17T02:05:34.400Z,0.30
2023-01-17T02:06:34.391Z,0.30
2023-01-17T02:07:34.432Z,0.30
2023-01-17T02:08:34.375Z,0.30
2023-01-17T02:09:34.349Z,0.30
2023-01-17T02:10:34.335Z,0.20
2023-01-17T02:11:34.320Z,0.40
2023-01-17T02:12:34.338Z,0.30
2023-01-17T02:13:34.325Z,0.30
2023-01-17T02:14:34.277Z,0.20
2023-01-17T02:15:34.270Z,0.30
2023-01-17T02:16:34.262Z,0.20
2023-01-17T02:17:34.255Z,0.30
2023-01-17T02:18:34.245Z,0.20
2023-01-17T02:19:34.236Z,0.40
2023-01-17T02:20:34.214Z,0.50
2023-01-17T02:21:34.211Z,0.30
2023-01-17T02:22:34.197Z,0.20
2023-01-17T02:23:34.185Z,0.20
2023-01-17T02:24:34.185Z,0.20
2023-01-17T02:25:34.147Z,0.20
2023-01-17T02:26:34.135Z,0.20
2023-01-17T02:27:34.139Z,0.30
2023-01-17T02:28:34.103Z,0.20
2023-01-17T02:29:34.139Z,0.30
2023-01-17T02:30:34.089Z,0.20
2023-01-17T02:31:34.105Z,0.30
2023-01-17T02:32:34.055Z,0.20
2023-01-17T02:33:34.034Z,0.20
2023-01-17T02:34:34.119Z,0.20
2023-01-17T02:35:34.026Z,0.30
2023-01-17T02:36:34.003Z,0.30
2023-01-17T02:37:33.981Z,0.30
2023-01-17T02:38:40.517Z,0.30
2023-01-17T02:39:34.688Z,0.20
2023-01-17T02:40:34.640Z,0.30
2023-01-17T02:41:33.930Z,0.20
2023-01-17T02:42:33.920Z,0.40
2023-01-17T02:43:33.922Z,0.40
2023-01-17T02:44:33.973Z,0.20
2023-01-17T02:45:33.957Z,0.30
2023-01-17T02:46:33.866Z,0.20
2023-01-17T02:47:33.954Z,0.20
2023-01-17T02:48:33.837Z,0.20
2023-01-17T02:49:33.825Z,0.20
2023-01-17T02:50:33.817Z,0.10
2023-01-17T02:51:33.800Z,0.20
2023-01-17T02:52:33.787Z,0.30
2023-01-17T02:53:33.777Z,0.20
2023-01-17T02:54:33.768Z,0.20
2023-01-17T02:55:33.821Z,0.20
2023-01-17T02:56:33.730Z,0.30
2023-01-17T02:57:33.742Z,0.20
2023-01-17T02:58:33.715Z,0.20
2023-01-17T02:59:33.701Z,0.30
2023-01-17T03:00:33.723Z,0.30
2023-01-17T03:01:33.777Z,0.40
2023-01-17T03:02:33.765Z,0.20
2023-01-17T03:03:33.658Z,0.30
2023-01-17T03:04:33.663Z,0.10
2023-01-17T03:05:33.645Z,0.10
2023-01-17T03:06:33.598Z,0.10
2023-01-17T03:07:33.616Z,0.20
2023-01-17T03:08:33.593Z,0.20
2023-01-17T03:09:33.576Z,0.10
2023-01-17T03:10:33.599Z,0.50
2023-01-17T03:11:33.548Z,0.30
2023-01-17T03:12:33.560Z,0.20
2023-01-17T03:13:33.527Z,0.20
2023-01-17T03:14:33.519Z,0.40
2023-01-17T03:15:33.497Z,0.20
2023-01-17T03:16:33.527Z,0.20
2023-01-17T03:17:33.488Z,0.20
2023-01-17T03:18:33.450Z,0.20
2023-01-17T03:19:33.437Z,0.30
2023-01-17T03:20:33.443Z,0.10
2023-01-17T03:21:33.407Z,0.30
2023-01-17T03:22:33.395Z,0.10
2023-01-17T03:23:33.407Z,0.40
2023-01-17T03:24:33.372Z,0.20
2023-01-17T03:25:33.402Z,0.10
2023-01-17T03:26:33.346Z,0.10
2023-01-17T03:27:33.335Z,0.20
2023-01-17T03:28:33.316Z,0.10
2023-01-17T03:29:33.302Z,0.20
2023-01-17T03:30:33.375Z,0.30
2023-01-17T03:31:33.306Z,0.30
2023-01-17T03:32:33.276Z,0.20
2023-01-17T03:33:33.267Z,0.30
2023-01-17T03:34:33.238Z,0.10
2023-01-17T03:35:33.219Z,0.40
2023-01-17T03:36:33.217Z,0.30
2023-01-17T03:37:33.206Z,0.10
2023-01-17T03:38:33.186Z,0.30
2023-01-17T03:39:33.180Z,0.20
2023-01-17T03:40:33.158Z,0.20
2023-01-17T03:41:33.181Z,0.20
2023-01-17T03:42:33.158Z,0.30
2023-01-17T03:43:33.134Z,0.20
2023-01-17T03:44:33.143Z,0.30
2023-01-17T03:45:33.130Z,0.20
2023-01-17T03:46:33.095Z,0.20
2023-01-17T03:47:33.070Z,0.30
2023-01-17T03:48:33.075Z,0.20
2023-01-17T03:49:33.068Z,0.20
2023-01-17T03:50:33.045Z,0.30
2023-01-17T03:51:33.021Z,0.20
2023-01-17T03:52:33.048Z,0.20
2023-01-17T03:53:33.008Z,0.30
2023-01-17T03:54:32.981Z,0.10
2023-01-17T03:55:32.982Z,0.20
2023-01-17T03:56:32.984Z,0.50
2023-01-17T03:57:32.961Z,0.30
2023-01-17T03:58:32.932Z,0.50
2023-01-17T03:59:32.922Z,0.40
2023-01-17T04:00:32.898Z,0.20
2023-01-17T04:01:33.155Z,0.20
2023-01-17T04:02:32.895Z,0.20
2023-01-17T04:03:32.866Z,0.20
2023-01-17T04:04:32.852Z,0.20
2023-01-17T04:05:32.834Z,0.40
2023-01-17T04:06:32.839Z,0.20
2023-01-17T04:07:32.814Z,0.20
2023-01-17T04:08:32.810Z,0.30
2023-01-17T04:09:32.787Z,0.30
2023-01-17T04:10:32.771Z,0.10
2023-01-17T04:11:32.756Z,0.20
2023-01-17T04:12:32.798Z,0.30
2023-01-17T04:13:32.741Z,0.30
2023-01-17T04:14:32.721Z,0.30
2023-01-17T04:15:32.708Z,0.30
2023-01-17T04:16:32.749Z,0.20
2023-01-17T04:17:32.682Z,0.40
2023-01-17T04:18:32.676Z,0.20
2023-01-17T04:19:32.663Z,0.40
2023-01-17T04:20:32.647Z,0.50
2023-01-17T04:21:32.642Z,0.20
2023-01-17T04:22:32.636Z,0.30
2023-01-17T04:23:32.609Z,0.30
2023-01-17T04:24:32.597Z,0.30
2023-01-17T04:25:32.577Z,0.40
2023-01-17T04:26:32.577Z,0.20
2023-01-17T04:27:32.559Z,0.10
2023-01-17T04:28:32.559Z,0.30
2023-01-17T04:29:32.540Z,0.40
2023-01-17T04:30:32.589Z,0.20
2023-01-17T04:31:32.528Z,0.30
2023-01-17T04:32:32.497Z,0.30
2023-01-17T04:33:32.500Z,0.20
2023-01-17T04:34:32.471Z,0.20
2023-01-17T04:35:32.449Z,0.20
2023-01-17T04:36:32.476Z,0.20
2023-01-17T04:37:32.436Z,0.20
2023-01-17T04:38:32.425Z,0.40
2023-01-17T04:39:32.399Z,0.40
2023-01-17T04:40:32.391Z,0.30
2023-01-17T04:41:32.382Z,0.50
2023-01-17T04:42:32.359Z,0.40
2023-01-17T04:43:32.363Z,0.40
2023-01-17T04:44:32.337Z,0.40
2023-01-17T04:45:32.339Z,0.30
2023-01-17T04:46:32.327Z,0.30
2023-01-17T04:47:32.299Z,0.30
2023-01-17T04:48:32.304Z,0.50
2023-01-17T04:49:32.281Z,0.50
2023-01-17T04:50:32.268Z,0.30
2023-01-17T04:51:32.251Z,0.50
2023-01-17T04:52:32.231Z,0.30
2023-01-17T04:53:32.237Z,0.20
2023-01-17T04:54:32.234Z,0.30
2023-01-17T04:55:32.193Z,1.00
2023-01-17T04:56:32.185Z,0.60
2023-01-17T04:57:32.164Z,0.40
2023-01-17T04:58:32.160Z,0.30
2023-01-17T04:59:32.143Z,0.30
2023-01-17T05:00:32.128Z,0.20
2023-01-17T05:01:32.239Z,0.50
2023-01-17T05:02:32.167Z,0.50
2023-01-17T05:03:32.096Z,0.30
2023-01-17T05:04:32.087Z,0.50
2023-01-17T05:05:32.064Z,0.70
2023-01-17T05:06:32.059Z,0.50
2023-01-17T05:07:32.046Z,0.50
2023-01-17T05:08:32.026Z,0.40
2023-01-17T05:09:32.022Z,0.40
2023-01-17T05:10:32.003Z,0.50
2023-01-17T05:11:31.988Z,0.30
2023-01-17T05:12:31.982Z,0.40
2023-01-17T05:13:31.961Z,0.50
2023-01-17T05:14:31.970Z,0.30
2023-01-17T05:15:31.962Z,0.30
2023-01-17T05:16:31.923Z,0.30
2023-01-17T05:17:31.922Z,0.60
2023-01-17T05:18:31.913Z,0.70
2023-01-17T05:19:31.924Z,0.40
2023-01-17T05:20:31.874Z,0.50
2023-01-17T05:21:31.867Z,0.50
2023-01-17T05:22:31.843Z,0.20
2023-01-17T05:23:31.841Z,0.70
2023-01-17T05:24:31.844Z,0.20
2023-01-17T05:25:31.808Z,0.50
2023-01-17T05:26:31.794Z,0.40
2023-01-17T05:27:31.794Z,0.50
2023-01-17T05:28:31.793Z,0.40
2023-01-17T05:29:31.767Z,0.30
2023-01-17T05:30:31.788Z,0.30
2023-01-17T05:31:31.736Z,0.20
2023-01-17T05:32:31.715Z,0.90
2023-01-17T05:33:31.724Z,0.30
2023-01-17T05:34:31.703Z,0.40
2023-01-17T05:35:31.702Z,0.30
2023-01-17T05:36:31.680Z,0.50
2023-01-17T05:37:31.659Z,0.30
2023-01-17T05:38:31.645Z,0.40
2023-01-17T05:39:31.633Z,0.50
2023-01-17T05:40:31.634Z,0.50
2023-01-17T05:41:31.619Z,0.30
2023-01-17T05:42:31.599Z,0.30
2023-01-17T05:43:31.612Z,0.30
2023-01-17T05:44:31.566Z,0.40
2023-01-17T05:45:31.582Z,0.30
2023-01-17T05:46:31.596Z,0.60
2023-01-17T05:47:31.531Z,0.20
2023-01-17T05:48:31.538Z,0.20
2023-01-17T05:49:31.501Z,0.30
2023-01-17T05:50:31.512Z,0.50
2023-01-17T05:51:31.491Z,0.60
2023-01-17T05:52:31.488Z,0.80
2023-01-17T05:53:31.465Z,0.60
2023-01-17T05:54:31.437Z,1.20
2023-01-17T05:55:31.444Z,0.50
2023-01-17T05:56:31.414Z,0.60
2023-01-17T05:57:31.397Z,0.60
2023-01-17T05:58:31.394Z,0.50
2023-01-17T05:59:36.856Z,0.40
2023-01-17T06:00:31.394Z,0.30
2023-01-17T06:01:31.343Z,0.80
2023-01-17T06:02:31.384Z,0.30
2023-01-17T06:03:31.329Z,0.70
2023-01-17T06:04:31.376Z,0.40
2023-01-17T06:05:31.317Z,0.70
2023-01-17T06:06:31.297Z,0.40
2023-01-17T06:07:31.268Z,0.40
2023-01-17T06:08:31.269Z,0.50
2023-01-17T06:09:31.250Z,0.50
2023-01-17T06:10:31.247Z,0.40
2023-01-17T06:11:31.231Z,0.50
2023-01-17T06:12:31.202Z,0.60
2023-01-17T06:13:31.189Z,0.50
2023-01-17T06:14:31.195Z,0.80
2023-01-17T06:15:31.169Z,0.80
2023-01-17T06:16:31.189Z,0.40
2023-01-17T06:17:31.145Z,1.00
2023-01-17T06:18:31.152Z,0.40
2023-01-17T06:19:31.152Z,0.50
2023-01-17T06:20:31.112Z,0.50
2023-01-17T06:21:31.092Z,0.40
2023-01-17T06:22:31.088Z,0.30
2023-01-17T06:23:31.080Z,0.40
2023-01-17T06:24:31.080Z,0.50
2023-01-17T06:25:31.042Z,0.60
2023-01-17T06:26:31.052Z,0.40
2023-01-17T06:27:31.022Z,0.60
2023-01-17T06:28:31.022Z,0.40
2023-01-17T06:29:30.989Z,0.40
2023-01-17T06:30:30.981Z,0.50
2023-01-17T06:31:31.066Z,0.50
2023-01-17T06:32:31.012Z,0.40
2023-01-17T06:33:30.977Z,0.60
2023-01-17T06:34:30.951Z,0.50
2023-01-17T06:35:30.940Z,0.30
2023-01-17T06:36:30.912Z,0.50
2023-01-17T06:37:30.918Z,0.60
2023-01-17T06:38:30.877Z,1.00
2023-01-17T06:39:30.884Z,1.30
2023-01-17T06:40:30.855Z,0.90
2023-01-17T06:41:30.906Z,0.80
2023-01-17T06:42:30.895Z,0.90
2023-01-17T06:43:30.811Z,0.80
2023-01-17T06:44:30.819Z,1.20
2023-01-17T06:45:30.786Z,0.80
2023-01-17T06:46:30.823Z,1.10
2023-01-17T06:47:30.763Z,1.00
2023-01-17T06:48:30.747Z,1.00
2023-01-17T06:49:30.729Z,1.00
2023-01-17T06:50:30.720Z,0.90
2023-01-17T06:51:30.742Z,0.70
2023-01-17T06:52:30.732Z,0.80
2023-01-17T06:53:30.681Z,0.80
2023-01-17T06:54:30.704Z,0.90
2023-01-17T06:55:30.681Z,0.80
2023-01-17T06:56:30.642Z,0.50
2023-01-17T06:57:30.652Z,0.90
2023-01-17T06:58:30.615Z,1.00
2023-01-17T06:59:30.613Z,1.20
2023-01-17T07:00:30.779Z,0.90
2023-01-17T07:01:30.746Z,1.00
2023-01-17T07:02:30.580Z,0.80
2023-01-17T07:03:30.609Z,0.90
2023-01-17T07:04:30.541Z,0.80
2023-01-17T07:05:30.563Z,0.60
2023-01-17T07:06:30.521Z,0.50
2023-01-17T07:07:33.037Z,0.70
2023-01-17T07:08:30.521Z,0.80
2023-01-17T07:09:30.487Z,1.10
2023-01-17T07:10:30.464Z,0.90
2023-01-17T07:11:30.465Z,1.30
2023-01-17T07:12:30.459Z,1.00
2023-01-17T07:13:30.422Z,1.10
2023-01-17T07:14:30.478Z,1.00
2023-01-17T07:15:30.428Z,0.90
2023-01-17T07:16:30.454Z,1.00
2023-01-17T07:17:30.402Z,1.20
2023-01-17T07:18:30.365Z,1.60
2023-01-17T07:19:30.343Z,2.10
2023-01-17T07:20:30.346Z,1.30
2023-01-17T07:21:30.337Z,0.90
2023-01-17T07:22:30.319Z,1.20
2023-01-17T07:23:30.295Z,1.50
2023-01-17T07:24:30.288Z,1.20
2023-01-17T07:25:30.273Z,1.10
2023-01-17T07:26:30.273Z,1.30
2023-01-17T07:27:30.327Z,1.20
2023-01-17T07:28:30.244Z,1.10
2023-01-17T07:29:30.233Z,1.40
2023-01-17T07:30:30.227Z,1.30
2023-01-17T07:31:30.238Z,1.30
2023-01-17T07:32:30.191Z,0.90
2023-01-17T07:33:30.187Z,1.00
2023-01-17T07:34:30.159Z,0.80
2023-01-17T07:35:30.138Z,1.20
2023-01-17T07:36:30.152Z,0.80
2023-01-17T07:37:30.124Z,0.90
2023-01-17T07:38:30.120Z,1.10
2023-01-17T07:39:30.092Z,1.00
2023-01-17T07:40:30.746Z,0.90
2023-01-17T07:41:30.061Z,0.70
2023-01-17T07:42:30.090Z,0.80
2023-01-17T07:43:30.053Z,0.90
2023-01-17T07:44:30.037Z,0.60
2023-01-17T07:45:30.025Z,0.80
2023-01-17T07:46:30.096Z,1.00
2023-01-17T07:47:29.987Z,1.30
2023-01-17T07:48:29.982Z,0.80
2023-01-17T07:49:29.964Z,0.80
2023-01-17T07:50:29.957Z,1.00
2023-01-17T07:51:29.934Z,0.80
2023-01-17T07:52:29.948Z,1.00
2023-01-17T07:53:29.951Z,1.10
2023-01-17T07:54:29.898Z,0.80
2023-01-17T07:55:29.884Z,0.80
2023-01-17T07:56:29.881Z,0.70
2023-01-17T07:57:29.856Z,0.80
2023-01-17T07:58:29.864Z,0.80
2023-01-17T07:59:29.865Z,1.00
2023-01-17T08:00:29.822Z,0.70
2023-01-17T08:01:29.943Z,1.20
2023-01-17T08:02:29.798Z,1.40
2023-01-17T08:03:29.817Z,1.40
2023-01-17T08:04:29.776Z,1.00
2023-01-17T08:05:29.765Z,1.10
2023-01-17T08:06:29.759Z,0.90
2023-01-17T08:07:29.740Z,1.20
2023-01-17T08:08:29.716Z,0.90
2023-01-17T08:09:29.718Z,1.30
2023-01-17T08:10:29.737Z,1.20
2023-01-17T08:11:29.679Z,1.10
2023-01-17T08:12:29.769Z,1.40
2023-01-17T08:13:30.002Z,1.40
2023-01-17T08:14:29.655Z,1.10
2023-01-17T08:15:29.625Z,0.90
2023-01-17T08:16:29.799Z,0.90
2023-01-17T08:17:29.622Z,1.10
2023-01-17T08:18:29.591Z,0.90
2023-01-17T08:19:29.582Z,0.90
2023-01-17T08:20:29.572Z,1.30
2023-01-17T08:21:29.554Z,1.30
2023-01-17T08:22:29.536Z,1.10
2023-01-17T08:23:29.537Z,1.00
2023-01-17T08:24:29.520Z,1.20
2023-01-17T08:25:29.501Z,1.30
2023-01-17T08:26:29.485Z,0.90
2023-01-17T08:27:29.477Z,0.80
2023-01-17T08:28:29.471Z,1.10
2023-01-17T08:29:29.456Z,0.70
2023-01-17T08:30:29.447Z,1.30
2023-01-17T08:31:29.468Z,0.90
2023-01-17T08:32:29.420Z,1.30
2023-01-17T08:33:29.438Z,1.10
2023-01-17T08:34:29.389Z,1.40
2023-01-17T08:35:29.380Z,1.20
2023-01-17T08:36:29.359Z,1.30
2023-01-17T08:37:29.355Z,1.70
2023-01-17T08:38:29.329Z,1.90
2023-01-17T08:39:29.347Z,1.70
2023-01-17T08:40:29.308Z,1.10
2023-01-17T08:41:29.296Z,1.10
2023-01-17T08:42:29.292Z,1.20
2023-01-17T08:43:29.301Z,1.20
2023-01-17T08:44:29.265Z,1.20
2023-01-17T08:45:29.316Z,0.90
2023-01-17T08:46:30.912Z,1.20
2023-01-17T08:47:29.217Z,1.10
2023-01-17T08:48:29.211Z,1.60
2023-01-17T08:49:29.208Z,1.50
2023-01-17T08:50:29.186Z,1.70
2023-01-17T08:51:29.175Z,1.60
2023-01-17T08:52:29.152Z,1.20
2023-01-17T08:53:29.139Z,1.30
2023-01-17T08:54:29.125Z,1.20
2023-01-17T08:55:29.141Z,1.10
2023-01-17T08:56:29.094Z,1.30
2023-01-17T08:57:29.101Z,1.10
2023-01-17T08:58:30.558Z,1.10
2023-01-17T08:59:29.066Z,1.50
2023-01-17T09:00:29.054Z,1.70
2023-01-17T09:01:29.151Z,1.30
2023-01-17T09:02:29.058Z,0.90
2023-01-17T09:03:29.166Z,0.90
2023-01-17T09:04:29.067Z,1.60
2023-01-17T09:05:28.996Z,1.20
2023-01-17T09:06:28.990Z,0.70
2023-01-17T09:07:28.999Z,1.10
2023-01-17T09:08:28.944Z,1.10
2023-01-17T09:09:28.962Z,1.20
2023-01-17T09:10:28.956Z,0.90
2023-01-17T09:11:28.920Z,1.00
2023-01-17T09:12:28.893Z,0.80
2023-01-17T09:13:28.875Z,1.10
2023-01-17T09:14:28.867Z,0.70
2023-01-17T09:15:28.871Z,0.60
2023-01-17T09:16:28.877Z,0.80
2023-01-17T09:17:28.840Z,1.10
2023-01-17T09:18:28.812Z,0.80
2023-01-17T09:19:28.812Z,0.70
2023-01-17T09:20:28.809Z,0.80
2023-01-17T09:21:28.796Z,0.90
2023-01-17T09:22:28.761Z,1.00
2023-01-17T09:23:28.755Z,0.60
2023-01-17T09:24:28.732Z,0.50
2023-01-17T09:25:28.733Z,0.90
2023-01-17T09:26:28.741Z,0.70
2023-01-17T09:27:28.698Z,0.70
2023-01-17T09:28:28.688Z,0.80
2023-01-17T09:29:28.682Z,0.90
2023-01-17T09:30:28.738Z,0.80
2023-01-17T09:31:28.653Z,0.70
2023-01-17T09:32:28.637Z,0.80
2023-01-17T09:33:28.680Z,0.60
2023-01-17T09:34:28.604Z,0.90
2023-01-17T09:35:28.596Z,0.70
2023-01-17T09:36:28.596Z,1.20
2023-01-17T09:37:28.594Z,0.70
2023-01-17T09:38:28.577Z,0.60
2023-01-17T09:39:28.562Z,0.80
2023-01-17T09:40:28.579Z,0.90
2023-01-17T09:41:28.524Z,0.60
2023-01-17T09:42:28.521Z,0.70
2023-01-17T09:43:28.526Z,0.60
2023-01-17T09:44:28.473Z,0.80
2023-01-17T09:45:28.464Z,0.70
2023-01-17T09:46:28.478Z,1.00
2023-01-17T09:47:28.503Z,1.10
2023-01-17T09:48:28.425Z,0.70
2023-01-17T09:49:28.445Z,0.50
2023-01-17T09:50:28.403Z,0.70
2023-01-17T09:51:28.417Z,0.70
2023-01-17T09:52:28.376Z,0.50
2023-01-17T09:53:28.363Z,0.70
2023-01-17T09:54:28.353Z,0.80
2023-01-17T09:55:28.336Z,0.70
2023-01-17T09:56:28.319Z,0.60
2023-01-17T09:57:28.342Z,0.60
2023-01-17T09:58:28.294Z,0.70
2023-01-17T09:59:33.172Z,0.80
2023-01-17T10:00:28.296Z,0.60
2023-01-17T10:01:28.452Z,0.80
2023-01-17T10:02:28.465Z,0.60
2023-01-17T10:03:28.361Z,0.60
2023-01-17T10:04:28.243Z,1.00
2023-01-17T10:05:28.221Z,0.80
2023-01-17T10:06:28.206Z,0.80
2023-01-17T10:07:28.192Z,1.10
2023-01-17T10:08:28.182Z,0.50
2023-01-17T10:09:28.149Z,0.60
2023-01-17T10:10:28.152Z,0.40
2023-01-17T10:11:28.122Z,0.40
2023-01-17T10:12:28.140Z,0.60
2023-01-17T10:13:28.119Z,0.60
2023-01-17T10:14:28.089Z,0.70
2023-01-17T10:15:28.652Z,0.60
2023-01-17T10:16:28.148Z,0.50
2023-01-17T10:17:28.051Z,0.70
2023-01-17T10:18:30.348Z,0.80
2023-01-17T10:19:28.024Z,0.30
2023-01-17T10:20:28.019Z,0.50
2023-01-17T10:21:28.003Z,0.40
2023-01-17T10:22:27.992Z,0.30
2023-01-17T10:23:28.393Z,0.40
2023-01-17T10:24:27.958Z,0.50
2023-01-17T10:25:27.944Z,0.70
2023-01-17T10:26:27.928Z,0.50
2023-01-17T10:27:27.922Z,0.60
2023-01-17T10:28:27.912Z,0.90
2023-01-17T10:29:27.896Z,0.40
2023-01-17T10:30:27.916Z,0.50
2023-01-17T10:31:27.879Z,0.50
2023-01-17T10:32:27.859Z,0.60
2023-01-17T10:33:27.855Z,0.50
2023-01-17T10:34:27.840Z,0.70
2023-01-17T10:35:27.857Z,0.40
2023-01-17T10:36:27.807Z,0.90
2023-01-17T10:37:27.800Z,0.70
2023-01-17T10:38:27.791Z,0.50
2023-01-17T10:39:27.776Z,0.60
2023-01-17T10:40:27.778Z,0.70
2023-01-17T10:41:27.768Z,0.50
2023-01-17T10:42:27.725Z,0.30
2023-01-17T10:43:27.714Z,0.50
2023-01-17T10:44:27.717Z,0.60
2023-01-17T10:45:27.724Z,0.80
2023-01-17T10:46:27.723Z,0.30
2023-01-17T10:47:27.682Z,0.60
2023-01-17T10:48:27.645Z,0.50
2023-01-17T10:49:27.714Z,0.50
2023-01-17T10:50:27.621Z,0.40
2023-01-17T10:51:27.630Z,0.30
2023-01-17T10:52:27.611Z,0.50
2023-01-17T10:53:27.598Z,0.50
2023-01-17T10:54:27.587Z,0.50
2023-01-17T10:55:27.579Z,0.40
2023-01-17T10:56:27.545Z,0.60
2023-01-17T10:57:27.545Z,0.40
2023-01-17T10:58:27.523Z,0.50
2023-01-17T10:59:27.540Z,0.60
2023-01-17T11:00:27.546Z,0.40
2023-01-17T11:01:27.552Z,0.30
2023-01-17T11:02:27.597Z,0.40
2023-01-17T11:03:27.478Z,0.40
2023-01-17T11:04:27.448Z,0.40
2023-01-17T11:05:27.435Z,0.30
2023-01-17T11:06:27.429Z,0.40
2023-01-17T11:07:27.435Z,0.60
2023-01-17T11:08:27.464Z,0.40
2023-01-17T11:09:27.385Z,0.50
2023-01-17T11:10:27.364Z,0.40
2023-01-17T11:11:27.402Z,0.40
2023-01-17T11:12:27.373Z,0.60
2023-01-17T11:13:27.333Z,0.50
2023-01-17T11:14:27.322Z,0.50
2023-01-17T11:15:27.363Z,0.40
2023-01-17T11:16:27.701Z,0.30
2023-01-17T11:17:27.296Z,0.50
2023-01-17T11:18:27.280Z,0.30
2023-01-17T11:19:27.323Z,0.30
2023-01-17T11:20:27.258Z,0.50
2023-01-17T11:21:27.253Z,0.50
2023-01-17T11:22:27.220Z,0.50
2023-01-17T11:23:27.229Z,0.40
2023-01-17T11:24:27.206Z,0.50
2023-01-17T11:25:27.199Z,0.60
2023-01-17T11:26:27.184Z,0.60
2023-01-17T11:27:27.155Z,0.50
2023-01-17T11:28:27.143Z,0.40
2023-01-17T11:29:27.161Z,0.50
2023-01-17T11:30:27.124Z,0.50
2023-01-17T11:31:27.252Z,0.40
2023-01-17T11:32:27.099Z,0.70
2023-01-17T11:33:27.097Z,0.60
2023-01-17T11:34:27.081Z,0.50
2023-01-17T11:35:27.088Z,0.50
2023-01-17T11:36:27.075Z,0.40
2023-01-17T11:37:27.030Z,0.30
2023-01-17T11:38:27.027Z,0.30
2023-01-17T11:39:27.008Z,0.50
2023-01-17T11:40:26.988Z,0.50
2023-01-17T11:41:27.009Z,0.50
2023-01-17T11:42:26.981Z,1.40
2023-01-17T11:43:26.997Z,1.50
2023-01-17T11:44:26.947Z,0.90
2023-01-17T11:45:30.553Z,0.80
2023-01-17T11:46:26.947Z,0.60
2023-01-17T11:47:26.903Z,0.50
2023-01-17T11:48:26.894Z,0.50
2023-01-17T11:49:26.875Z,0.40
2023-01-17T11:50:26.874Z,0.50
2023-01-17T11:51:26.854Z,0.40
2023-01-17T11:52:26.855Z,0.50
2023-01-17T11:53:26.839Z,0.70
2023-01-17T11:54:27.480Z,0.50
2023-01-17T11:55:28.977Z,0.50
2023-01-17T11:56:26.797Z,0.50
2023-01-17T11:57:26.810Z,0.70
2023-01-17T11:58:26.806Z,0.50
2023-01-17T11:59:26.756Z,0.70
2023-01-17T12:00:29.484Z,0.60
2023-01-17T12:01:27.771Z,0.50
2023-01-17T12:02:26.720Z,0.50
2023-01-17T12:03:27.414Z,0.50
2023-01-17T12:04:26.692Z,0.50
2023-01-17T12:05:26.679Z,0.50
2023-01-17T12:06:30.373Z,0.60
2023-01-17T12:07:26.678Z,0.60
2023-01-17T12:08:26.688Z,0.70
2023-01-17T12:09:26.647Z,0.60
2023-01-17T12:10:26.620Z,0.60
2023-01-17T12:11:26.617Z,0.70
2023-01-17T12:12:26.638Z,0.50
2023-01-17T12:13:26.578Z,0.60
2023-01-17T12:14:27.351Z,0.80
2023-01-17T12:15:26.560Z,1.40
2023-01-17T12:16:27.692Z,1.40
2023-01-17T12:17:26.533Z,2.00
2023-01-17T12:18:27.468Z,1.80
2023-01-17T12:19:26.505Z,1.60
2023-01-17T12:20:26.537Z,1.40
2023-01-17T12:21:26.522Z,0.70
2023-01-17T12:22:26.478Z,0.90
2023-01-17T12:23:26.474Z,1.40
2023-01-17T12:24:26.468Z,5.70
2023-01-17T12:25:26.444Z,10.90
2023-01-17T12:26:26.423Z,15.50
2023-01-17T12:27:26.414Z,19.80
2023-01-17T12:28:27.346Z,15.70
2023-01-17T12:29:26.395Z,20.70
2023-01-17T12:30:26.374Z,21.20
2023-01-17T12:31:27.181Z,13.70
2023-01-17T12:32:26.330Z,39.40
2023-01-17T12:33:26.351Z,18.30
2023-01-17T12:34:26.399Z,10.30
2023-01-17T12:35:26.309Z,6.90
2023-01-17T12:36:26.308Z,4.80
2023-01-17T12:37:26.278Z,4.70
2023-01-17T12:38:32.589Z,2.30
2023-01-17T12:39:26.261Z,2.00
2023-01-17T12:40:26.254Z,1.90
2023-01-17T12:41:26.233Z,1.80
2023-01-17T12:42:26.224Z,1.40
2023-01-17T12:43:26.194Z,1.40
2023-01-17T12:44:26.184Z,1.60
2023-01-17T12:45:26.192Z,0.80
2023-01-17T12:46:26.232Z,0.80
2023-01-17T12:47:26.136Z,0.70
2023-01-17T12:48:26.159Z,0.90
2023-01-17T12:49:26.119Z,0.80
2023-01-17T12:50:26.129Z,1.40
2023-01-17T12:51:26.102Z,0.80
2023-01-17T12:52:26.088Z,0.60
2023-01-17T12:53:26.107Z,0.70
2023-01-17T12:54:26.062Z,0.90
2023-01-17T12:55:26.045Z,0.90
2023-01-17T12:56:26.074Z,0.70
2023-01-17T12:57:26.027Z,1.00
2023-01-17T12:58:26.023Z,0.60
2023-01-17T12:59:25.986Z,0.80
2023-01-17T13:00:26.087Z,0.70
2023-01-17T13:01:26.027Z,0.60
2023-01-17T13:02:25.992Z,0.40
2023-01-17T13:03:25.945Z,0.60
2023-01-17T13:04:25.933Z,0.80
2023-01-17T13:05:25.925Z,0.50
2023-01-17T13:06:25.924Z,1.00
2023-01-17T13:07:31.922Z,0.80
2023-01-17T13:08:25.872Z,0.70
2023-01-17T13:09:25.877Z,1.10
2023-01-17T13:10:25.873Z,0.40
2023-01-17T13:11:25.837Z,0.50
2023-01-17T13:12:25.849Z,0.60
2023-01-17T13:13:25.851Z,0.70
2023-01-17T13:14:25.813Z,0.80
2023-01-17T13:15:25.826Z,0.90
2023-01-17T13:16:25.827Z,0.50
2023-01-17T13:17:25.778Z,0.60
2023-01-17T13:18:25.777Z,0.50